sensor_id;sensor_type;location;lat;lon;timestamp;P1;durP1;ratioP1;P2;durP2;ratioP2
70761;SDS011;58360;0.000;0.000;2022-11-10T00:00:57;19.20;;;3.10;;
70761;SDS011;58360;0.000;0.000;2022-11-10T00:03:22;22.70;;;3.65;;
70761;SDS011;58360;0.000;0.000;2022-11-10T00:05:52;17.95;;;4.10;;
70761;SDS011;58360;0.000;0.000;2022-11-10T00:08:18;13.90;;;2.95;;
70761;SDS011;58360;0.000;0.000;2022-11-10T00:10:43;20.25;;;3.95;;
70761;SDS011;58360;0.000;0.000;2022-11-10T00:15:59;18.15;;;3.40;;
70761;SDS011;58360;0.000;0.000;2022-11-10T00:18:47;24.20;;;3.95;;
70761;SDS011;58360;0.000;0.000;2022-11-10T00:21:13;17.20;;;3.50;;
70761;SDS011;58360;0.000;0.000;2022-11-10T00:23:40;20.65;;;4.30;;
70761;SDS011;58360;0.000;0.000;2022-11-10T00:26:10;16.25;;;3.47;;
70761;SDS011;58360;0.000;0.000;2022-11-10T00:28:37;17.83;;;4.07;;
70761;SDS011;58360;0.000;0.000;2022-11-10T00:31:04;19.45;;;3.63;;
70761;SDS011;58360;0.000;0.000;2022-11-10T00:33:32;17.67;;;3.40;;
70761;SDS011;58360;0.000;0.000;2022-11-10T00:36:00;19.13;;;3.53;;
70761;SDS011;58360;0.000;0.000;2022-11-10T00:38:26;18.83;;;3.97;;
70761;SDS011;58360;0.000;0.000;2022-11-10T00:40:51;24.13;;;3.75;;
70761;SDS011;58360;0.000;0.000;2022-11-10T00:43:17;14.80;;;3.22;;
70761;SDS011;58360;0.000;0.000;2022-11-10T00:45:42;23.02;;;3.10;;
70761;SDS011;58360;0.000;0.000;2022-11-10T00:48:08;17.80;;;3.67;;
70761;SDS011;58360;0.000;0.000;2022-11-10T00:50:34;16.13;;;2.83;;
70761;SDS011;58360;0.000;0.000;2022-11-10T00:53:00;20.05;;;3.58;;
70761;SDS011;58360;0.000;0.000;2022-11-10T00:55:26;19.25;;;3.30;;
70761;SDS011;58360;0.000;0.000;2022-11-10T00:57:51;14.65;;;3.03;;
70761;SDS011;58360;0.000;0.000;2022-11-10T01:00:17;14.98;;;3.03;;
70761;SDS011;58360;0.000;0.000;2022-11-10T01:02:42;23.02;;;3.90;;
70761;SDS011;58360;0.000;0.000;2022-11-10T01:05:08;14.10;;;3.35;;
70761;SDS011;58360;0.000;0.000;2022-11-10T01:07:34;16.38;;;3.33;;
70761;SDS011;58360;0.000;0.000;2022-11-10T01:10:00;16.58;;;3.47;;
70761;SDS011;58360;0.000;0.000;2022-11-10T01:12:28;22.20;;;3.42;;
70761;SDS011;58360;0.000;0.000;2022-11-10T01:14:55;16.58;;;4.72;;
70761;SDS011;58360;0.000;0.000;2022-11-10T01:17:21;17.90;;;3.75;;
70761;SDS011;58360;0.000;0.000;2022-11-10T01:19:46;18.38;;;3.35;;
70761;SDS011;58360;0.000;0.000;2022-11-10T01:22:12;21.63;;;3.53;;
70761;SDS011;58360;0.000;0.000;2022-11-10T01:24:37;17.05;;;3.60;;
70761;SDS011;58360;0.000;0.000;2022-11-10T01:27:03;24.77;;;3.90;;
70761;SDS011;58360;0.000;0.000;2022-11-10T01:29:29;24.63;;;3.97;;
70761;SDS011;58360;0.000;0.000;2022-11-10T01:31:54;15.82;;;3.50;;
70761;SDS011;58360;0.000;0.000;2022-11-10T01:34:20;17.27;;;3.10;;
70761;SDS011;58360;0.000;0.000;2022-11-10T01:36:46;20.00;;;4.10;;
70761;SDS011;58360;0.000;0.000;2022-11-10T01:39:11;19.50;;;4.07;;
70761;SDS011;58360;0.000;0.000;2022-11-10T01:41:37;13.52;;;3.53;;
70761;SDS011;58360;0.000;0.000;2022-11-10T01:44:17;23.95;;;3.85;;
70761;SDS011;58360;0.000;0.000;2022-11-10T01:46:45;16.83;;;3.40;;
70761;SDS011;58360;0.000;0.000;2022-11-10T01:49:11;13.75;;;3.53;;
70761;SDS011;58360;0.000;0.000;2022-11-10T01:54:35;14.65;;;3.58;;
70761;SDS011;58360;0.000;0.000;2022-11-10T01:57:04;13.48;;;3.28;;
70761;SDS011;58360;0.000;0.000;2022-11-10T01:59:38;13.45;;;3.17;;
70761;SDS011;58360;0.000;0.000;2022-11-10T02:02:21;16.33;;;3.38;;
70761;SDS011;58360;0.000;0.000;2022-11-10T02:04:51;14.95;;;3.70;;
70761;SDS011;58360;0.000;0.000;2022-11-10T02:07:17;16.17;;;3.58;;
70761;SDS011;58360;0.000;0.000;2022-11-10T02:09:43;16.52;;;3.10;;
70761;SDS011;58360;0.000;0.000;2022-11-10T02:12:09;12.23;;;3.45;;
70761;SDS011;58360;0.000;0.000;2022-11-10T02:14:35;19.45;;;3.65;;
70761;SDS011;58360;0.000;0.000;2022-11-10T02:17:02;20.42;;;3.95;;
70761;SDS011;58360;0.000;0.000;2022-11-10T02:19:28;18.63;;;3.50;;
70761;SDS011;58360;0.000;0.000;2022-11-10T02:21:53;21.60;;;3.55;;
70761;SDS011;58360;0.000;0.000;2022-11-10T02:24:19;12.48;;;3.10;;
70761;SDS011;58360;0.000;0.000;2022-11-10T02:26:47;16.35;;;4.00;;
70761;SDS011;58360;0.000;0.000;2022-11-10T02:29:14;23.05;;;4.15;;
70761;SDS011;58360;0.000;0.000;2022-11-10T02:31:40;14.55;;;3.80;;
70761;SDS011;58360;0.000;0.000;2022-11-10T02:34:06;17.42;;;3.65;;
70761;SDS011;58360;0.000;0.000;2022-11-10T02:36:32;17.30;;;3.80;;
70761;SDS011;58360;0.000;0.000;2022-11-10T02:38:57;21.25;;;4.00;;
70761;SDS011;58360;0.000;0.000;2022-11-10T02:41:23;19.75;;;3.67;;
70761;SDS011;58360;0.000;0.000;2022-11-10T02:43:49;15.20;;;3.25;;
70761;SDS011;58360;0.000;0.000;2022-11-10T02:46:16;20.60;;;4.00;;
70761;SDS011;58360;0.000;0.000;2022-11-10T02:48:41;28.05;;;3.80;;
70761;SDS011;58360;0.000;0.000;2022-11-10T02:51:07;20.17;;;3.70;;
70761;SDS011;58360;0.000;0.000;2022-11-10T02:53:33;14.80;;;3.90;;
70761;SDS011;58360;0.000;0.000;2022-11-10T02:55:59;17.55;;;3.53;;
70761;SDS011;58360;0.000;0.000;2022-11-10T02:58:24;20.70;;;3.08;;
70761;SDS011;58360;0.000;0.000;2022-11-10T03:00:50;24.65;;;6.00;;
70761;SDS011;58360;0.000;0.000;2022-11-10T03:03:16;16.50;;;3.75;;
70761;SDS011;58360;0.000;0.000;2022-11-10T03:05:41;18.73;;;3.78;;
70761;SDS011;58360;0.000;0.000;2022-11-10T03:08:07;30.80;;;3.88;;
70761;SDS011;58360;0.000;0.000;2022-11-10T03:10:33;21.75;;;3.55;;
70761;SDS011;58360;0.000;0.000;2022-11-10T03:12:59;17.98;;;3.55;;
70761;SDS011;58360;0.000;0.000;2022-11-10T03:15:26;23.92;;;3.28;;
70761;SDS011;58360;0.000;0.000;2022-11-10T03:17:53;20.45;;;3.20;;
70761;SDS011;58360;0.000;0.000;2022-11-10T03:20:19;16.60;;;3.60;;
70761;SDS011;58360;0.000;0.000;2022-11-10T03:22:44;19.70;;;3.10;;
70761;SDS011;58360;0.000;0.000;2022-11-10T03:25:10;24.60;;;3.40;;
70761;SDS011;58360;0.000;0.000;2022-11-10T03:27:36;20.98;;;4.30;;
70761;SDS011;58360;0.000;0.000;2022-11-10T03:30:03;19.38;;;3.13;;
70761;SDS011;58360;0.000;0.000;2022-11-10T03:32:29;23.13;;;3.50;;
70761;SDS011;58360;0.000;0.000;2022-11-10T03:34:56;16.10;;;3.67;;
70761;SDS011;58360;0.000;0.000;2022-11-10T03:37:21;22.98;;;3.35;;
70761;SDS011;58360;0.000;0.000;2022-11-10T03:39:47;14.75;;;3.05;;
70761;SDS011;58360;0.000;0.000;2022-11-10T03:42:13;27.10;;;3.55;;
70761;SDS011;58360;0.000;0.000;2022-11-10T03:44:38;16.52;;;3.55;;
70761;SDS011;58360;0.000;0.000;2022-11-10T03:47:04;11.05;;;2.83;;
70761;SDS011;58360;0.000;0.000;2022-11-10T03:49:30;18.02;;;3.65;;
70761;SDS011;58360;0.000;0.000;2022-11-10T03:51:55;19.98;;;3.60;;
70761;SDS011;58360;0.000;0.000;2022-11-10T03:54:21;15.75;;;3.33;;
70761;SDS011;58360;0.000;0.000;2022-11-10T03:56:47;16.75;;;3.13;;
70761;SDS011;58360;0.000;0.000;2022-11-10T03:59:13;13.57;;;2.97;;
70761;SDS011;58360;0.000;0.000;2022-11-10T04:01:39;18.17;;;4.43;;
70761;SDS011;58360;0.000;0.000;2022-11-10T04:04:04;16.33;;;3.80;;
70761;SDS011;58360;0.000;0.000;2022-11-10T04:06:50;21.50;;;3.35;;
70761;SDS011;58360;0.000;0.000;2022-11-10T04:09:34;23.00;;;3.30;;
70761;SDS011;58360;0.000;0.000;2022-11-10T04:12:00;22.08;;;4.78;;
70761;SDS011;58360;0.000;0.000;2022-11-10T04:14:44;18.52;;;3.58;;
70761;SDS011;58360;0.000;0.000;2022-11-10T04:17:29;16.65;;;3.10;;
70761;SDS011;58360;0.000;0.000;2022-11-10T04:19:55;20.67;;;3.17;;
70761;SDS011;58360;0.000;0.000;2022-11-10T04:22:21;16.70;;;3.25;;
70761;SDS011;58360;0.000;0.000;2022-11-10T04:25:06;19.15;;;2.88;;
70761;SDS011;58360;0.000;0.000;2022-11-10T04:27:32;16.98;;;2.97;;
70761;SDS011;58360;0.000;0.000;2022-11-10T04:29:58;18.95;;;3.35;;
70761;SDS011;58360;0.000;0.000;2022-11-10T04:32:23;13.60;;;4.15;;
70761;SDS011;58360;0.000;0.000;2022-11-10T04:34:49;15.57;;;3.10;;
70761;SDS011;58360;0.000;0.000;2022-11-10T04:37:15;18.70;;;3.50;;
70761;SDS011;58360;0.000;0.000;2022-11-10T04:39:41;17.63;;;3.67;;
70761;SDS011;58360;0.000;0.000;2022-11-10T04:42:06;21.35;;;3.72;;
70761;SDS011;58360;0.000;0.000;2022-11-10T04:44:32;15.10;;;3.50;;
70761;SDS011;58360;0.000;0.000;2022-11-10T04:46:58;22.10;;;3.50;;
70761;SDS011;58360;0.000;0.000;2022-11-10T04:49:23;19.13;;;3.08;;
70761;SDS011;58360;0.000;0.000;2022-11-10T04:51:49;20.00;;;3.38;;
70761;SDS011;58360;0.000;0.000;2022-11-10T04:54:15;20.92;;;3.95;;
70761;SDS011;58360;0.000;0.000;2022-11-10T04:56:40;27.90;;;3.35;;
70761;SDS011;58360;0.000;0.000;2022-11-10T04:59:06;23.42;;;3.58;;
70761;SDS011;58360;0.000;0.000;2022-11-10T05:01:32;20.60;;;3.70;;
70761;SDS011;58360;0.000;0.000;2022-11-10T05:03:58;17.38;;;3.22;;
70761;SDS011;58360;0.000;0.000;2022-11-10T05:06:23;19.95;;;3.45;;
70761;SDS011;58360;0.000;0.000;2022-11-10T05:08:49;17.73;;;3.13;;
70761;SDS011;58360;0.000;0.000;2022-11-10T05:11:15;19.25;;;3.53;;
70761;SDS011;58360;0.000;0.000;2022-11-10T05:13:42;24.27;;;3.70;;
70761;SDS011;58360;0.000;0.000;2022-11-10T05:16:09;16.58;;;3.53;;
70761;SDS011;58360;0.000;0.000;2022-11-10T05:18:35;24.67;;;3.75;;
70761;SDS011;58360;0.000;0.000;2022-11-10T05:21:01;19.58;;;3.67;;
70761;SDS011;58360;0.000;0.000;2022-11-10T05:23:27;23.83;;;3.83;;
70761;SDS011;58360;0.000;0.000;2022-11-10T05:26:15;28.60;;;4.72;;
70761;SDS011;58360;0.000;0.000;2022-11-10T05:28:42;27.88;;;4.07;;
70761;SDS011;58360;0.000;0.000;2022-11-10T05:31:09;19.75;;;3.40;;
70761;SDS011;58360;0.000;0.000;2022-11-10T05:33:36;21.98;;;4.53;;
70761;SDS011;58360;0.000;0.000;2022-11-10T05:36:02;15.82;;;2.67;;
70761;SDS011;58360;0.000;0.000;2022-11-10T05:38:29;23.58;;;3.88;;
70761;SDS011;58360;0.000;0.000;2022-11-10T05:40:55;22.15;;;3.33;;
70761;SDS011;58360;0.000;0.000;2022-11-10T05:43:21;22.02;;;3.63;;
70761;SDS011;58360;0.000;0.000;2022-11-10T05:45:47;22.20;;;3.83;;
70761;SDS011;58360;0.000;0.000;2022-11-10T05:48:13;23.25;;;3.35;;
70761;SDS011;58360;0.000;0.000;2022-11-10T05:50:39;21.48;;;4.05;;
70761;SDS011;58360;0.000;0.000;2022-11-10T05:53:06;20.60;;;3.78;;
70761;SDS011;58360;0.000;0.000;2022-11-10T05:55:31;15.57;;;3.30;;
70761;SDS011;58360;0.000;0.000;2022-11-10T05:57:57;21.52;;;3.67;;
70761;SDS011;58360;0.000;0.000;2022-11-10T06:00:24;16.42;;;3.40;;
70761;SDS011;58360;0.000;0.000;2022-11-10T06:03:01;24.90;;;3.90;;
70761;SDS011;58360;0.000;0.000;2022-11-10T06:05:33;19.70;;;3.88;;
70761;SDS011;58360;0.000;0.000;2022-11-10T06:08:00;23.65;;;4.80;;
70761;SDS011;58360;0.000;0.000;2022-11-10T06:10:27;16.52;;;4.05;;
70761;SDS011;58360;0.000;0.000;2022-11-10T06:12:53;23.20;;;4.18;;
70761;SDS011;58360;0.000;0.000;2022-11-10T06:15:19;24.42;;;5.25;;
70761;SDS011;58360;0.000;0.000;2022-11-10T06:17:45;36.20;;;5.70;;
70761;SDS011;58360;0.000;0.000;2022-11-10T06:20:11;16.75;;;4.82;;
70761;SDS011;58360;0.000;0.000;2022-11-10T06:22:39;32.15;;;8.43;;
70761;SDS011;58360;0.000;0.000;2022-11-10T06:25:05;30.88;;;6.25;;
70761;SDS011;58360;0.000;0.000;2022-11-10T06:27:31;31.27;;;7.18;;
70761;SDS011;58360;0.000;0.000;2022-11-10T06:29:57;34.33;;;8.68;;
70761;SDS011;58360;0.000;0.000;2022-11-10T06:32:23;27.63;;;6.47;;
70761;SDS011;58360;0.000;0.000;2022-11-10T06:34:48;34.15;;;5.45;;
70761;SDS011;58360;0.000;0.000;2022-11-10T06:37:14;28.50;;;4.60;;
70761;SDS011;58360;0.000;0.000;2022-11-10T06:39:40;24.70;;;5.45;;
70761;SDS011;58360;0.000;0.000;2022-11-10T06:42:06;23.55;;;4.35;;
70761;SDS011;58360;0.000;0.000;2022-11-10T06:44:31;27.38;;;5.45;;
70761;SDS011;58360;0.000;0.000;2022-11-10T06:46:57;50.13;;;6.05;;
70761;SDS011;58360;0.000;0.000;2022-11-10T06:49:23;23.45;;;4.32;;
70761;SDS011;58360;0.000;0.000;2022-11-10T06:51:48;24.50;;;4.53;;
70761;SDS011;58360;0.000;0.000;2022-11-10T06:54:14;18.52;;;4.47;;
70761;SDS011;58360;0.000;0.000;2022-11-10T06:56:39;24.50;;;4.63;;
70761;SDS011;58360;0.000;0.000;2022-11-10T06:59:05;25.75;;;4.38;;
70761;SDS011;58360;0.000;0.000;2022-11-10T07:01:31;29.05;;;5.45;;
70761;SDS011;58360;0.000;0.000;2022-11-10T07:03:56;30.25;;;4.50;;
70761;SDS011;58360;0.000;0.000;2022-11-10T07:06:22;23.70;;;4.13;;
70761;SDS011;58360;0.000;0.000;2022-11-10T07:08:48;21.77;;;4.20;;
70761;SDS011;58360;0.000;0.000;2022-11-10T07:11:14;22.30;;;4.20;;
70761;SDS011;58360;0.000;0.000;2022-11-10T07:13:39;20.10;;;3.88;;
70761;SDS011;58360;0.000;0.000;2022-11-10T07:16:06;40.75;;;4.85;;
70761;SDS011;58360;0.000;0.000;2022-11-10T07:18:33;27.92;;;4.05;;
70761;SDS011;58360;0.000;0.000;2022-11-10T07:21:02;27.02;;;4.60;;
70761;SDS011;58360;0.000;0.000;2022-11-10T07:23:31;35.05;;;4.60;;
70761;SDS011;58360;0.000;0.000;2022-11-10T07:25:58;35.95;;;4.25;;
70761;SDS011;58360;0.000;0.000;2022-11-10T07:28:25;32.72;;;4.70;;
70761;SDS011;58360;0.000;0.000;2022-11-10T07:30:51;34.13;;;5.88;;
70761;SDS011;58360;0.000;0.000;2022-11-10T07:33:17;24.85;;;4.88;;
70761;SDS011;58360;0.000;0.000;2022-11-10T07:35:42;19.63;;;3.88;;
70761;SDS011;58360;0.000;0.000;2022-11-10T07:38:11;16.40;;;3.90;;
70761;SDS011;58360;0.000;0.000;2022-11-10T07:40:38;31.00;;;3.92;;
70761;SDS011;58360;0.000;0.000;2022-11-10T07:43:05;19.90;;;3.72;;
70761;SDS011;58360;0.000;0.000;2022-11-10T07:45:31;26.80;;;4.65;;
70761;SDS011;58360;0.000;0.000;2022-11-10T07:47:58;31.23;;;4.97;;
70761;SDS011;58360;0.000;0.000;2022-11-10T07:50:24;22.88;;;3.72;;
70761;SDS011;58360;0.000;0.000;2022-11-10T07:52:50;18.38;;;3.80;;
70761;SDS011;58360;0.000;0.000;2022-11-10T07:55:16;34.40;;;5.38;;
70761;SDS011;58360;0.000;0.000;2022-11-10T07:57:41;42.20;;;6.88;;
70761;SDS011;58360;0.000;0.000;2022-11-10T08:00:07;22.63;;;5.13;;
70761;SDS011;58360;0.000;0.000;2022-11-10T08:02:34;31.92;;;5.97;;
70761;SDS011;58360;0.000;0.000;2022-11-10T08:05:00;22.02;;;5.20;;
70761;SDS011;58360;0.000;0.000;2022-11-10T08:07:25;26.48;;;5.95;;
70761;SDS011;58360;0.000;0.000;2022-11-10T08:09:51;23.00;;;4.65;;
70761;SDS011;58360;0.000;0.000;2022-11-10T08:12:17;17.23;;;3.47;;
70761;SDS011;58360;0.000;0.000;2022-11-10T08:14:42;25.13;;;4.30;;
70761;SDS011;58360;0.000;0.000;2022-11-10T08:17:08;20.38;;;4.28;;
70761;SDS011;58360;0.000;0.000;2022-11-10T08:19:34;22.92;;;4.20;;
70761;SDS011;58360;0.000;0.000;2022-11-10T08:21:59;15.52;;;3.92;;
70761;SDS011;58360;0.000;0.000;2022-11-10T08:24:25;26.48;;;4.82;;
70761;SDS011;58360;0.000;0.000;2022-11-10T08:26:50;26.58;;;4.32;;
70761;SDS011;58360;0.000;0.000;2022-11-10T08:29:16;18.88;;;4.45;;
70761;SDS011;58360;0.000;0.000;2022-11-10T08:31:42;20.15;;;3.85;;
70761;SDS011;58360;0.000;0.000;2022-11-10T08:34:08;20.67;;;3.90;;
70761;SDS011;58360;0.000;0.000;2022-11-10T08:36:33;14.55;;;3.42;;
70761;SDS011;58360;0.000;0.000;2022-11-10T08:39:01;20.58;;;4.03;;
70761;SDS011;58360;0.000;0.000;2022-11-10T08:41:27;20.02;;;4.35;;
70761;SDS011;58360;0.000;0.000;2022-11-10T08:43:52;27.08;;;5.25;;
70761;SDS011;58360;0.000;0.000;2022-11-10T08:46:18;19.50;;;3.88;;
70761;SDS011;58360;0.000;0.000;2022-11-10T08:48:44;19.73;;;4.75;;
70761;SDS011;58360;0.000;0.000;2022-11-10T08:51:09;28.00;;;4.50;;
70761;SDS011;58360;0.000;0.000;2022-11-10T08:53:35;23.50;;;4.30;;
70761;SDS011;58360;0.000;0.000;2022-11-10T08:56:01;21.42;;;3.53;;
70761;SDS011;58360;0.000;0.000;2022-11-10T08:58:26;24.23;;;3.65;;
70761;SDS011;58360;0.000;0.000;2022-11-10T09:00:52;13.40;;;3.47;;
70761;SDS011;58360;0.000;0.000;2022-11-10T09:03:18;19.80;;;3.35;;
70761;SDS011;58360;0.000;0.000;2022-11-10T09:05:46;15.65;;;2.95;;
70761;SDS011;58360;0.000;0.000;2022-11-10T09:08:12;19.75;;;3.47;;
70761;SDS011;58360;0.000;0.000;2022-11-10T09:10:40;20.75;;;4.10;;
70761;SDS011;58360;0.000;0.000;2022-11-10T09:13:07;14.65;;;3.33;;
70761;SDS011;58360;0.000;0.000;2022-11-10T09:15:34;16.50;;;4.15;;
70761;SDS011;58360;0.000;0.000;2022-11-10T09:18:01;19.38;;;4.13;;
70761;SDS011;58360;0.000;0.000;2022-11-10T09:20:28;21.60;;;4.05;;
70761;SDS011;58360;0.000;0.000;2022-11-10T09:22:54;18.88;;;3.20;;
70761;SDS011;58360;0.000;0.000;2022-11-10T09:25:21;16.50;;;3.45;;
70761;SDS011;58360;0.000;0.000;2022-11-10T09:27:47;19.35;;;3.50;;
70761;SDS011;58360;0.000;0.000;2022-11-10T09:30:13;18.60;;;3.55;;
70761;SDS011;58360;0.000;0.000;2022-11-10T09:32:39;17.38;;;3.53;;
70761;SDS011;58360;0.000;0.000;2022-11-10T09:35:05;16.15;;;3.47;;
70761;SDS011;58360;0.000;0.000;2022-11-10T09:37:31;16.33;;;3.15;;
70761;SDS011;58360;0.000;0.000;2022-11-10T09:39:57;17.92;;;3.47;;
70761;SDS011;58360;0.000;0.000;2022-11-10T09:42:33;18.65;;;3.25;;
70761;SDS011;58360;0.000;0.000;2022-11-10T09:47:32;16.52;;;3.70;;
70761;SDS011;58360;0.000;0.000;2022-11-10T09:50:23;17.30;;;3.75;;
70761;SDS011;58360;0.000;0.000;2022-11-10T09:53:00;28.80;;;4.85;;
70761;SDS011;58360;0.000;0.000;2022-11-10T09:55:29;15.90;;;3.40;;
70761;SDS011;58360;0.000;0.000;2022-11-10T09:58:07;21.05;;;3.00;;
70761;SDS011;58360;0.000;0.000;2022-11-10T10:00:36;15.80;;;3.45;;
70761;SDS011;58360;0.000;0.000;2022-11-10T10:03:04;20.65;;;3.00;;
70761;SDS011;58360;0.000;0.000;2022-11-10T10:08:37;14.75;;;2.78;;
70761;SDS011;58360;0.000;0.000;2022-11-10T10:11:15;30.02;;;4.03;;
70761;SDS011;58360;0.000;0.000;2022-11-10T10:16:50;16.17;;;3.10;;
70761;SDS011;58360;0.000;0.000;2022-11-10T10:24:58;11.07;;;2.35;;
70761;SDS011;58360;0.000;0.000;2022-11-10T10:27:27;16.98;;;3.10;;
70761;SDS011;58360;0.000;0.000;2022-11-10T10:29:55;14.77;;;2.80;;
70761;SDS011;58360;0.000;0.000;2022-11-10T10:32:21;24.38;;;3.08;;
70761;SDS011;58360;0.000;0.000;2022-11-10T10:34:47;15.82;;;2.90;;
70761;SDS011;58360;0.000;0.000;2022-11-10T10:37:34;19.13;;;2.90;;
70761;SDS011;58360;0.000;0.000;2022-11-10T10:40:08;15.05;;;2.42;;
70761;SDS011;58360;0.000;0.000;2022-11-10T10:42:39;18.88;;;2.72;;
70761;SDS011;58360;0.000;0.000;2022-11-10T10:45:16;16.95;;;3.22;;
70761;SDS011;58360;0.000;0.000;2022-11-10T10:47:47;12.90;;;2.80;;
70761;SDS011;58360;0.000;0.000;2022-11-10T10:53:18;19.98;;;3.03;;
70761;SDS011;58360;0.000;0.000;2022-11-10T10:58:28;10.63;;;2.38;;
70761;SDS011;58360;0.000;0.000;2022-11-10T11:01:04;11.77;;;2.67;;
70761;SDS011;58360;0.000;0.000;2022-11-10T11:03:48;10.23;;;2.72;;
70761;SDS011;58360;0.000;0.000;2022-11-10T11:11:31;12.82;;;3.22;;
70761;SDS011;58360;0.000;0.000;2022-11-10T11:14:18;16.98;;;2.85;;
70761;SDS011;58360;0.000;0.000;2022-11-10T11:16:52;14.40;;;2.50;;
70761;SDS011;58360;0.000;0.000;2022-11-10T11:19:21;10.20;;;2.20;;
70761;SDS011;58360;0.000;0.000;2022-11-10T11:24:33;9.65;;;2.25;;
70761;SDS011;58360;0.000;0.000;2022-11-10T11:27:11;16.55;;;2.72;;
70761;SDS011;58360;0.000;0.000;2022-11-10T11:32:23;11.20;;;2.72;;
70761;SDS011;58360;0.000;0.000;2022-11-10T11:43:04;13.85;;;2.90;;
70761;SDS011;58360;0.000;0.000;2022-11-10T11:45:58;11.13;;;3.22;;
70761;SDS011;58360;0.000;0.000;2022-11-10T11:51:30;19.40;;;3.53;;
70761;SDS011;58360;0.000;0.000;2022-11-10T11:56:48;12.02;;;2.70;;
70761;SDS011;58360;0.000;0.000;2022-11-10T12:02:03;15.10;;;3.35;;
70761;SDS011;58360;0.000;0.000;2022-11-10T12:04:44;11.38;;;3.33;;
70761;SDS011;58360;0.000;0.000;2022-11-10T12:07:23;11.10;;;2.78;;
70761;SDS011;58360;0.000;0.000;2022-11-10T12:10:12;12.95;;;2.80;;
70761;SDS011;58360;0.000;0.000;2022-11-10T12:15:49;13.55;;;2.63;;
70761;SDS011;58360;0.000;0.000;2022-11-10T12:21:19;14.63;;;2.65;;
70761;SDS011;58360;0.000;0.000;2022-11-10T12:26:37;12.00;;;2.47;;
70761;SDS011;58360;0.000;0.000;2022-11-10T12:31:34;9.40;;;2.30;;
70761;SDS011;58360;0.000;0.000;2022-11-10T12:36:55;9.80;;;2.07;;
70761;SDS011;58360;0.000;0.000;2022-11-10T12:39:24;10.00;;;2.25;;
70761;SDS011;58360;0.000;0.000;2022-11-10T12:42:02;9.20;;;2.85;;
70761;SDS011;58360;0.000;0.000;2022-11-10T12:47:17;10.60;;;2.83;;
70761;SDS011;58360;0.000;0.000;2022-11-10T12:49:50;12.15;;;3.05;;
70761;SDS011;58360;0.000;0.000;2022-11-10T12:52:31;14.50;;;3.40;;
70761;SDS011;58360;0.000;0.000;2022-11-10T12:55:05;8.93;;;3.20;;
70761;SDS011;58360;0.000;0.000;2022-11-10T12:57:32;11.38;;;2.95;;
70761;SDS011;58360;0.000;0.000;2022-11-10T13:07:49;9.32;;;2.95;;
70761;SDS011;58360;0.000;0.000;2022-11-10T13:10:28;13.13;;;2.30;;
70761;SDS011;58360;0.000;0.000;2022-11-10T13:18:03;10.68;;;2.00;;
70761;SDS011;58360;0.000;0.000;2022-11-10T13:26:03;8.27;;;1.83;;
70761;SDS011;58360;0.000;0.000;2022-11-10T13:36:50;8.18;;;2.63;;
70761;SDS011;58360;0.000;0.000;2022-11-10T13:42:29;15.68;;;2.30;;
70761;SDS011;58360;0.000;0.000;2022-11-10T13:44:35;11.80;;;2.50;;
70761;SDS011;58360;0.000;0.000;2022-11-10T13:50:22;12.70;;;2.40;;
70761;SDS011;58360;0.000;0.000;2022-11-10T13:53:00;11.18;;;2.30;;
70761;SDS011;58360;0.000;0.000;2022-11-10T13:55:51;10.25;;;2.72;;
70761;SDS011;58360;0.000;0.000;2022-11-10T13:58:27;8.85;;;2.03;;
70761;SDS011;58360;0.000;0.000;2022-11-10T14:06:28;11.75;;;2.05;;
70761;SDS011;58360;0.000;0.000;2022-11-10T14:12:14;8.85;;;2.40;;
70761;SDS011;58360;0.000;0.000;2022-11-10T14:14:50;15.20;;;2.40;;
70761;SDS011;58360;0.000;0.000;2022-11-10T14:17:21;23.92;;;2.80;;
70761;SDS011;58360;0.000;0.000;2022-11-10T14:19:50;10.60;;;2.50;;
70761;SDS011;58360;0.000;0.000;2022-11-10T14:25:13;10.82;;;2.10;;
70761;SDS011;58360;0.000;0.000;2022-11-10T14:27:47;9.43;;;2.40;;
70761;SDS011;58360;0.000;0.000;2022-11-10T14:32:53;9.45;;;2.28;;
70761;SDS011;58360;0.000;0.000;2022-11-10T14:35:56;9.82;;;2.35;;
70761;SDS011;58360;0.000;0.000;2022-11-10T14:38:25;14.52;;;2.88;;
70761;SDS011;58360;0.000;0.000;2022-11-10T14:40:53;17.92;;;2.85;;
70761;SDS011;58360;0.000;0.000;2022-11-10T14:43:34;16.15;;;2.50;;
70761;SDS011;58360;0.000;0.000;2022-11-10T14:46:02;24.33;;;3.00;;
70761;SDS011;58360;0.000;0.000;2022-11-10T14:48:30;11.27;;;1.88;;
70761;SDS011;58360;0.000;0.000;2022-11-10T14:51:01;18.17;;;3.10;;
70761;SDS011;58360;0.000;0.000;2022-11-10T14:53:34;11.02;;;2.17;;
70761;SDS011;58360;0.000;0.000;2022-11-10T14:56:04;10.73;;;2.33;;
70761;SDS011;58360;0.000;0.000;2022-11-10T14:58:38;9.15;;;2.30;;
70761;SDS011;58360;0.000;0.000;2022-11-10T15:01:05;9.80;;;2.20;;
70761;SDS011;58360;0.000;0.000;2022-11-10T15:03:46;11.73;;;2.30;;
70761;SDS011;58360;0.000;0.000;2022-11-10T15:06:12;9.00;;;2.03;;
70761;SDS011;58360;0.000;0.000;2022-11-10T15:08:39;7.50;;;2.25;;
70761;SDS011;58360;0.000;0.000;2022-11-10T15:11:05;12.10;;;2.65;;
70761;SDS011;58360;0.000;0.000;2022-11-10T15:13:33;8.65;;;2.30;;
70761;SDS011;58360;0.000;0.000;2022-11-10T15:18:47;7.90;;;2.00;;
70761;SDS011;58360;0.000;0.000;2022-11-10T15:21:15;10.45;;;2.13;;
70761;SDS011;58360;0.000;0.000;2022-11-10T15:23:44;6.00;;;2.00;;
70761;SDS011;58360;0.000;0.000;2022-11-10T15:26:19;8.82;;;2.38;;
70761;SDS011;58360;0.000;0.000;2022-11-10T15:28:50;11.77;;;2.55;;
70761;SDS011;58360;0.000;0.000;2022-11-10T15:31:26;8.60;;;2.28;;
70761;SDS011;58360;0.000;0.000;2022-11-10T15:33:55;12.48;;;2.33;;
70761;SDS011;58360;0.000;0.000;2022-11-10T15:39:05;12.52;;;3.10;;
70761;SDS011;58360;0.000;0.000;2022-11-10T15:41:44;12.27;;;2.80;;
70761;SDS011;58360;0.000;0.000;2022-11-10T15:44:15;20.35;;;3.10;;
70761;SDS011;58360;0.000;0.000;2022-11-10T15:46:41;14.13;;;2.88;;
70761;SDS011;58360;0.000;0.000;2022-11-10T15:49:14;8.18;;;2.40;;
70761;SDS011;58360;0.000;0.000;2022-11-10T15:51:41;18.65;;;3.13;;
70761;SDS011;58360;0.000;0.000;2022-11-10T15:54:08;12.63;;;2.63;;
70761;SDS011;58360;0.000;0.000;2022-11-10T15:56:35;8.63;;;2.03;;
70761;SDS011;58360;0.000;0.000;2022-11-10T15:59:01;14.63;;;2.70;;
70761;SDS011;58360;0.000;0.000;2022-11-10T16:01:27;11.38;;;2.78;;
70761;SDS011;58360;0.000;0.000;2022-11-10T16:03:54;12.52;;;2.67;;
70761;SDS011;58360;0.000;0.000;2022-11-10T16:06:19;10.45;;;2.78;;
70761;SDS011;58360;0.000;0.000;2022-11-10T16:08:45;11.32;;;2.75;;
70761;SDS011;58360;0.000;0.000;2022-11-10T16:11:12;10.13;;;2.53;;
70761;SDS011;58360;0.000;0.000;2022-11-10T16:13:44;13.00;;;2.90;;
70761;SDS011;58360;0.000;0.000;2022-11-10T16:16:12;13.68;;;2.88;;
70761;SDS011;58360;0.000;0.000;2022-11-10T16:18:39;8.63;;;2.85;;
70761;SDS011;58360;0.000;0.000;2022-11-10T16:21:05;9.57;;;2.70;;
70761;SDS011;58360;0.000;0.000;2022-11-10T16:23:31;13.55;;;2.97;;
70761;SDS011;58360;0.000;0.000;2022-11-10T16:25:56;10.85;;;3.10;;
70761;SDS011;58360;0.000;0.000;2022-11-10T16:28:23;12.15;;;3.47;;
70761;SDS011;58360;0.000;0.000;2022-11-10T16:30:52;13.20;;;3.95;;
70761;SDS011;58360;0.000;0.000;2022-11-10T16:33:19;12.77;;;3.17;;
70761;SDS011;58360;0.000;0.000;2022-11-10T16:35:50;13.52;;;3.40;;
70761;SDS011;58360;0.000;0.000;2022-11-10T16:40:51;17.70;;;3.55;;
70761;SDS011;58360;0.000;0.000;2022-11-10T16:43:25;9.27;;;3.08;;
70761;SDS011;58360;0.000;0.000;2022-11-10T16:45:52;10.45;;;2.88;;
70761;SDS011;58360;0.000;0.000;2022-11-10T16:48:21;9.68;;;2.90;;
70761;SDS011;58360;0.000;0.000;2022-11-10T16:50:52;13.85;;;3.42;;
70761;SDS011;58360;0.000;0.000;2022-11-10T16:53:20;10.20;;;3.58;;
70761;SDS011;58360;0.000;0.000;2022-11-10T16:55:48;10.05;;;3.78;;
70761;SDS011;58360;0.000;0.000;2022-11-10T16:58:14;11.15;;;3.35;;
70761;SDS011;58360;0.000;0.000;2022-11-10T17:00:39;15.15;;;3.13;;